Time;durP1;ratioP1;P1;durP2;ratioP2;P2;SDS_P1;SDS_P2;PMS_P1;PMS_P2;Temp;Humidity;BMP_temperature;BMP_pressure;BME280_temperature;BME280_humidity;BME280_pressure;Samples;Min_cycle;Max_cycle;Signal;HPM_P1;HPM_P2
2021/10/05 00:01:47;;;;;;;5.90;4.55;;;;;;;11.43;63.37;99785.81;10300634;28;20202;-67
2021/10/05 00:06:49;;;;;;;4.80;3.40;;;;;;;11.39;63.75;99774.72;10301323;28;20117;-67
2021/10/05 00:11:51;;;;;;;4.85;2.47;;;;;;;11.27;63.92;99770.28;10301382;28;20569;-67
2021/10/05 00:16:52;;;;;;;6.15;2.28;;;;;;;11.19;63.87;99765.50;10294923;28;20050;-67
2021/10/05 00:21:54;;;;;;;4.32;2.10;;;;;;;11.22;64.00;99760.09;10306588;28;20141;-67
2021/10/05 00:26:56;;;;;;;4.75;3.20;;;;;;;11.23;64.01;99753.91;10309139;28;20491;-67
2021/10/05 00:31:57;;;;;;;6.70;5.53;;;;;;;11.14;64.52;99733.56;10308478;28;20051;-66
2021/10/05 00:36:59;;;;;;;8.60;6.95;;;;;;;11.28;64.36;99736.13;10308543;28;20054;-66
2021/10/05 00:42:03;;;;;;;5.72;4.57;;;;;;;11.37;63.90;99729.47;10303476;28;20060;-67
2021/10/05 00:47:10;;;;;;;5.45;3.80;;;;;;;11.41;63.75;99733.56;10306534;28;20076;-67
2021/10/05 00:52:14;;;;;;;5.88;4.18;;;;;;;11.41;63.68;99730.09;10301432;28;20601;-67
2021/10/05 00:57:16;;;;;;;5.65;4.00;;;;;;;11.44;63.60;99732.50;10306694;28;20080;-67
2021/10/05 01:02:18;;;;;;;8.05;4.80;;;;;;;11.47;63.44;99729.69;10322755;28;20060;-66
2021/10/05 01:07:19;;;;;;;9.93;5.75;;;;;;;11.25;63.77;99710.13;10307601;28;20059;-67
2021/10/05 01:12:21;;;;;;;9.10;5.75;;;;;;;11.21;63.95;99702.63;10307873;28;20426;-67
2021/10/05 01:17:23;;;;;;;6.30;5.22;;;;;;;11.24;63.90;99694.53;10318736;28;20050;-67
2021/10/05 01:22:25;;;;;;;5.13;3.78;;;;;;;11.21;64.22;99698.19;10305228;28;20050;-67
2021/10/05 01:27:26;;;;;;;6.72;4.20;;;;;;;11.14;64.30;99694.31;10319847;28;20411;-67
2021/10/05 01:32:28;;;;;;;6.60;4.45;;;;;;;11.19;64.24;99689.59;10308160;28;20053;-66
2021/10/05 01:37:30;;;;;;;5.65;4.00;;;;;;;11.21;64.14;99686.91;10307780;28;20046;-67
2021/10/05 01:42:31;;;;;;;6.35;4.30;;;;;;;11.24;64.03;99677.06;10308545;28;20134;-67
2021/10/05 01:47:33;;;;;;;5.32;3.10;;;;;;;11.20;63.95;99665.13;10307812;28;20427;-67
2021/10/05 01:52:36;;;;;;;5.28;3.40;;;;;;;11.19;63.97;99666.03;10308195;28;20061;-67
2021/10/05 01:57:38;;;;;;;7.38;5.55;;;;;;;11.25;64.00;99659.59;10306953;28;20447;-67
2021/10/05 02:02:39;;;;;;;7.97;5.03;;;;;;;11.27;63.92;99653.28;10310782;28;20438;-67
2021/10/05 02:07:41;;;;;;;8.98;5.43;;;;;;;11.23;63.81;99640.53;10329928;28;20046;-66
2021/10/05 02:12:43;;;;;;;8.23;5.57;;;;;;;11.21;63.84;99634.56;10314311;28;20061;-66
2021/10/05 02:17:45;;;;;;;6.88;5.97;;;;;;;11.05;64.44;99624.25;10313812;28;20415;-67
2021/10/05 02:22:48;;;;;;;6.75;4.10;;;;;;;10.87;64.99;99614.97;10313965;28;20142;-67
2021/10/05 02:27:49;;;;;;;6.05;3.92;;;;;;;10.96;64.90;99598.69;10311804;28;20133;-67
2021/10/05 02:32:55;;;;;;;9.30;5.65;;;;;;;11.00;64.99;99600.16;10312086;28;20061;-67
2021/10/05 02:37:57;;;;;;;11.60;10.27;;;;;;;11.08;65.06;99597.88;10312401;28;20050;-67
2021/10/05 02:42:59;;;;;;;7.03;5.00;;;;;;;11.23;64.58;99596.84;10311396;28;20057;-67
2021/10/05 02:48:01;;;;;;;7.63;4.20;;;;;;;11.23;64.14;99585.56;10312582;28;20545;-67
2021/10/05 02:53:02;;;;;;;5.32;3.92;;;;;;;11.17;64.28;99584.16;10312948;28;20042;-68
2021/10/05 02:58:04;;;;;;;5.38;4.72;;;;;;;11.13;64.39;99568.81;10312481;28;20050;-67
2021/10/05 03:03:06;;;;;;;7.07;3.90;;;;;;;11.17;64.22;99560.63;10310702;28;20061;-68
2021/10/05 03:08:08;;;;;;;6.10;4.43;;;;;;;11.16;64.21;99553.72;10306987;28;20046;-68
2021/10/05 03:13:09;;;;;;;7.25;6.10;;;;;;;11.18;64.42;99538.75;10305119;28;20090;-67
2021/10/05 03:18:11;;;;;;;7.07;5.55;;;;;;;11.05;64.41;99534.47;10319703;28;20061;-68
2021/10/05 03:23:13;;;;;;;6.68;5.22;;;;;;;11.07;64.69;99540.44;10305273;28;20050;-67
2021/10/05 03:28:15;;;;;;;7.55;5.75;;;;;;;11.17;64.50;99537.06;10305046;28;20157;-67
2021/10/05 03:33:16;;;;;;;10.13;5.80;;;;;;;11.22;64.51;99548.06;10304542;28;20047;-67
2021/10/05 03:38:18;;;;;;;8.05;5.65;;;;;;;11.28;64.39;99538.94;10304644;28;20384;-67
2021/10/05 03:43:20;;;;;;;8.27;5.93;;;;;;;11.28;64.18;99526.69;10304014;28;20047;-67
2021/10/05 03:48:22;;;;;;;7.82;6.30;;;;;;;11.22;64.47;99519.28;10303394;28;20046;-67
2021/10/05 03:53:25;;;;;;;9.55;6.22;;;;;;;11.27;64.18;99514.53;10303150;28;20054;-67
2021/10/05 03:58:27;;;;;;;8.07;6.03;;;;;;;11.25;64.33;99513.81;10303726;28;20133;-67
2021/10/05 04:03:29;;;;;;;9.23;6.30;;;;;;;11.21;64.54;99508.91;10304003;28;20153;-67
2021/10/05 04:08:31;;;;;;;9.23;7.43;;;;;;;11.07;64.63;99499.38;10304059;28;20054;-67
2021/10/05 04:13:33;;;;;;;11.68;7.50;;;;;;;11.09;64.97;99494.06;10304146;28;20054;-66
2021/10/05 04:18:34;;;;;;;8.02;6.00;;;;;;;11.13;64.55;99496.34;10303507;28;20141;-68
2021/10/05 04:23:36;;;;;;;7.75;6.07;;;;;;;11.20;64.46;99499.38;10303795;28;20050;-68
2021/10/05 04:28:38;;;;;;;8.45;6.88;;;;;;;11.05;64.82;99480.31;10286193;28;20478;-68
2021/10/05 04:33:39;;;;;;;8.52;6.47;;;;;;;11.03;64.90;99471.72;10303568;28;20052;-68
2021/10/05 04:38:41;;;;;;;9.55;7.18;;;;;;;11.14;64.84;99466.63;10302798;28;20057;-68
2021/10/05 04:43:43;;;;;;;9.80;7.30;;;;;;;11.24;64.79;99470.28;10303007;28;20050;-67
2021/10/05 04:48:45;;;;;;;14.43;8.77;;;;;;;11.25;64.46;99448.38;10301959;28;20038;-68
2021/10/05 04:53:46;;;;;;;7.13;6.32;;;;;;;11.10;64.85;99444.22;10303059;28;20133;-68
2021/10/05 04:58:48;;;;;;;8.43;6.35;;;;;;;11.14;64.78;99465.78;10301367;28;20061;-68
2021/10/05 05:03:52;;;;;;;7.25;5.47;;;;;;;11.16;64.81;99451.66;10302853;28;20058;-67
2021/10/05 05:08:54;;;;;;;11.93;8.75;;;;;;;11.20;64.81;99454.88;10308767;28;20064;-67
2021/10/05 05:13:56;;;;;;;9.70;8.13;;;;;;;11.29;64.71;99434.13;10308629;28;20588;-68
2021/10/05 05:18:58;;;;;;;12.02;8.77;;;;;;;11.32;64.61;99426.06;10309189;28;20054;-68
2021/10/05 05:24:00;;;;;;;10.20;7.22;;;;;;;11.38;64.54;99431.81;10309370;28;20064;-69
2021/10/05 05:29:01;;;;;;;10.25;8.00;;;;;;;11.38;64.50;99423.97;10308997;28;20509;-68
2021/10/05 05:34:03;;;;;;;10.73;7.47;;;;;;;11.41;64.26;99421.13;10308893;28;20061;-68
2021/10/05 05:39:05;;;;;;;10.10;8.10;;;;;;;11.43;64.27;99422.69;10307107;28;20137;-68
2021/10/05 05:44:07;;;;;;;11.02;9.57;;;;;;;11.34;64.47;99420.72;10308240;28;20459;-69
2021/10/05 05:49:08;;;;;;;19.48;13.15;;;;;;;11.32;64.58;99412.13;10307414;28;20479;-68
2021/10/05 05:54:10;;;;;;;10.32;8.30;;;;;;;11.15;64.88;99405.47;10308268;28;20057;-69
2021/10/05 05:59:12;;;;;;;9.10;7.70;;;;;;;11.27;64.95;99398.53;10308102;28;20050;-68
2021/10/05 06:04:13;;;;;;;11.32;6.95;;;;;;;11.28;64.75;99394.97;10307932;28;20061;-68
2021/10/05 06:09:16;;;;;;;10.27;8.23;;;;;;;11.37;64.78;99399.56;10308313;28;20085;-69
2021/10/05 06:14:23;;;;;;;11.55;9.55;;;;;;;11.48;64.48;99398.81;10306383;28;20050;-68
2021/10/05 06:19:25;;;;;;;10.73;7.35;;;;;;;11.57;64.50;99395.50;10312505;28;20050;-69
2021/10/05 06:24:28;;;;;;;7.95;6.72;;;;;;;11.66;64.27;99394.84;10304896;28;20398;-68
2021/10/05 06:29:29;;;;;;;10.32;6.78;;;;;;;11.73;64.12;99385.59;10345337;28;20046;-68
2021/10/05 06:34:31;;;;;;;14.05;8.32;;;;;;;11.84;63.77;99378.63;10346204;28;20046;-69
2021/10/05 06:39:33;;;;;;;9.88;6.95;;;;;;;11.85;63.77;99375.03;10361052;28;20160;-68
2021/10/05 06:44:35;;;;;;;11.90;8.10;;;;;;;11.89;63.92;99365.16;10345617;28;20456;-68
2021/10/05 06:49:37;;;;;;;10.25;7.40;;;;;;;12.03;63.43;99370.22;10345541;28;20046;-69
2021/10/05 06:54:39;;;;;;;10.32;8.70;;;;;;;12.11;63.27;99366.09;10341897;28;20046;-69
2021/10/05 06:59:40;;;;;;;13.00;9.18;;;;;;;12.16;63.29;99357.88;10343710;28;20110;-68
2021/10/05 07:04:42;;;;;;;11.82;9.20;;;;;;;12.10;63.38;99348.69;10359844;28;20082;-69
2021/10/05 07:09:44;;;;;;;14.90;11.70;;;;;;;12.20;63.48;99343.59;10359292;28;20072;-69
2021/10/05 07:14:45;;;;;;;15.38;10.48;;;;;;;12.23;63.46;99337.28;10336599;28;20046;-69
2021/10/05 07:19:47;;;;;;;15.40;11.13;;;;;;;12.31;63.33;99340.19;10342979;28;20058;-68
2021/10/05 07:24:49;;;;;;;15.80;13.10;;;;;;;12.23;63.40;99326.78;10343864;28;20058;-68
2021/10/05 07:29:51;;;;;;;17.25;13.63;;;;;;;12.30;63.72;99331.47;10341968;28;20421;-69
2021/10/05 07:34:53;;;;;;;17.10;13.27;;;;;;;12.39;63.71;99317.69;10343181;28;20153;-69
2021/10/05 07:39:55;;;;;;;20.33;14.50;;;;;;;12.45;63.77;99309.34;10342453;28;20415;-68
2021/10/05 07:44:58;;;;;;;16.05;11.23;;;;;;;12.54;63.43;99294.66;10342941;28;20053;-68
2021/10/05 07:50:00;;;;;;;14.48;12.32;;;;;;;12.55;63.46;99299.81;10342733;28;20104;-68
2021/10/05 07:55:02;;;;;;;12.80;11.38;;;;;;;12.94;63.04;99306.34;10338509;28;20104;-68
2021/10/05 08:00:06;;;;;;;15.60;11.65;;;;;;;13.04;62.51;99296.78;10340789;28;20050;-68
2021/10/05 08:05:08;;;;;;;16.95;12.45;;;;;;;12.92;63.30;99297.75;10340598;28;20490;-72
2021/10/05 08:10:11;;;;;;;12.88;10.18;;;;;;;13.06;62.86;99286.16;10341249;28;20090;-71
2021/10/05 08:15:12;;;;;;;14.23;11.27;;;;;;;13.21;62.68;99277.88;10337850;28;20499;-71
2021/10/05 08:20:14;;;;;;;14.88;10.68;;;;;;;13.27;62.52;99293.13;10341441;28;20461;-70
2021/10/05 08:25:16;;;;;;;13.88;9.77;;;;;;;13.51;62.15;99292.97;10339737;28;20056;-71
2021/10/05 08:30:19;;;;;;;12.27;9.90;;;;;;;13.72;61.61;99292.03;10341851;28;20042;-71
2021/10/05 08:35:21;;;;;;;15.38;11.00;;;;;;;13.88;61.51;99281.06;10340914;28;20068;-70
2021/10/05 08:40:23;;;;;;;12.10;9.20;;;;;;;14.15;61.00;99276.13;10342657;28;20050;-70
2021/10/05 08:45:26;;;;;;;11.82;8.85;;;;;;;14.29;60.70;99283.69;10346512;28;20467;-72
2021/10/05 08:50:28;;;;;;;9.77;8.32;;;;;;;14.31;60.56;99278.28;10363100;28;20037;-72
2021/10/05 08:55:29;;;;;;;10.75;9.20;;;;;;;14.41;60.20;99274.75;10347882;28;20052;-72
2021/10/05 09:00:32;;;;;;;32.90;20.55;;;;;;;14.56;60.11;99264.72;10347825;28;20435;-72
2021/10/05 09:05:39;;;;;;;14.18;10.55;;;;;;;14.88;59.80;99249.59;10348189;28;20054;-72
2021/10/05 09:10:41;;;;;;;7.25;6.18;;;;;;;15.55;58.06;99244.41;10349188;28;20305;-72
2021/10/05 09:15:42;;;;;;;8.05;4.78;;;;;;;16.16;56.03;99242.25;10348921;28;20045;-72
2021/10/05 09:20:44;;;;;;;31.50;15.98;;;;;;;16.44;54.91;99229.94;10347433;28;20054;-75
2021/10/05 09:25:53;;;;;;;14.52;7.47;;;;;;;16.54;53.46;99228.09;10345176;28;20088;-77
2021/10/05 09:31:04;;;;;;;9.90;5.40;;;;;;;17.31;52.11;99210.78;10348290;28;20426;-77
2021/10/05 09:36:07;;;;;;;12.88;7.68;;;;;;;17.60;50.53;99214.03;10347538;28;20060;-78
2021/10/05 09:41:10;;;;;;;18.48;9.88;;;;;;;17.74;49.78;99200.25;10348104;28;20630;-77
2021/10/05 09:46:14;;;;;;;8.27;5.20;;;;;;;17.42;49.16;99213.22;10346953;28;20056;-76
2021/10/05 09:51:24;;;;;;;12.95;6.72;;;;;;;17.31;49.70;99216.06;10348047;28;20054;-77
2021/10/05 09:56:28;;;;;;;4.27;2.50;;;;;;;17.05;50.04;99217.78;10345886;28;20050;-77
2021/10/05 10:01:31;;;;;;;8.23;5.03;;;;;;;17.10;49.99;99210.22;10342947;28;20485;-78
2021/10/05 10:06:38;;;;;;;5.10;3.20;;;;;;;16.86;49.91;99215.25;10342511;28;20445;-77
2021/10/05 10:11:40;;;;;;;3.45;2.00;;;;;;;16.83;50.31;99215.56;10345590;28;20693;-78
2021/10/05 10:16:50;;;;;;;3.20;1.90;;;;;;;16.96;49.28;99208.94;10344933;28;20046;-79
2021/10/05 10:21:52;;;;;;;4.95;3.20;;;;;;;16.58;50.24;99210.97;10346104;28;20171;-78
2021/10/05 10:27:03;;;;;;;7.30;4.20;;;;;;;17.37;48.38;99212.00;10341803;28;20045;-78
2021/10/05 10:32:26;;;;;;;3.08;1.70;;;;;;;17.88;46.98;99196.22;10345444;28;20669;-79
2021/10/05 10:37:39;;;;;;;3.10;1.58;;;;;;;17.78;47.38;99188.38;10343292;28;20064;-78
2021/10/05 10:42:42;;;;;;;5.53;3.08;;;;;;;17.75;47.25;99193.16;10346314;28;20056;-78
2021/10/05 10:47:47;;;;;;;16.25;7.32;;;;;;;18.06;45.98;99182.91;10339793;28;20060;-79
2021/10/05 10:52:48;;;;;;;12.10;5.57;;;;;;;17.90;45.76;99169.59;10346343;28;20056;-80
2021/10/05 10:57:51;;;;;;;5.38;2.47;;;;;;;17.59;45.96;99167.41;10345347;28;20551;-79
2021/10/05 11:02:57;;;;;;;2.78;1.80;;;;;;;17.23;46.43;99154.38;10345866;28;20127;-78
2021/10/05 11:07:59;;;;;;;3.25;1.38;;;;;;;17.11;46.35;99147.66;10357218;28;20144;-79
2021/10/05 11:13:06;;;;;;;2.00;1.27;;;;;;;17.08;46.52;99146.13;10346543;28;20145;-79
2021/10/05 11:18:11;;;;;;;2.50;1.30;;;;;;;17.38;45.77;99123.81;10345415;28;20046;-78
2021/10/05 11:23:14;;;;;;;1.63;1.10;;;;;;;17.14;45.69;99129.69;10345081;28;20302;-78
2021/10/05 11:28:19;;;;;;;1.45;1.05;;;;;;;17.18;43.73;99112.53;10344385;28;20387;-77
2021/10/05 11:33:30;;;;;;;3.40;1.38;;;;;;;17.42;44.43;99109.31;10345286;28;20050;-78
2021/10/05 11:38:38;;;;;;;2.30;1.30;;;;;;;17.46;43.94;99098.28;10345318;28;20054;-78
2021/10/05 11:43:46;;;;;;;3.97;1.30;;;;;;;17.37;44.79;99091.25;10348241;28;20478;-77
2021/10/05 11:48:53;;;;;;;2.13;1.30;;;;;;;17.35;44.54;99090.59;10346194;28;20406;-77
2021/10/05 11:53:58;;;;;;;1.58;1.20;;;;;;;17.41;44.25;99082.03;10344643;28;20073;-76
2021/10/05 11:59:00;;;;;;;2.58;1.35;;;;;;;17.41;43.89;99076.75;10343825;28;20097;-76
2021/10/05 12:04:09;;;;;;;2.20;1.15;;;;;;;17.93;43.39;99066.13;10342269;28;20132;-76
2021/10/05 12:09:18;;;;;;;4.28;1.20;;;;;;;18.19;42.33;99035.13;10343907;28;20054;-77
2021/10/05 12:14:23;;;;;;;2.65;1.30;;;;;;;18.29;42.62;99043.78;10341990;28;20048;-78
2021/10/05 12:19:46;;;;;;;3.22;1.30;;;;;;;18.63;41.73;99029.44;10352232;28;20053;-77
2021/10/05 12:24:52;;;;;;;2.45;1.20;;;;;;;18.50;41.04;99018.50;10352403;28;20075;-78
2021/10/05 12:30:00;;;;;;;2.72;1.23;;;;;;;18.61;41.54;99010.25;10351744;28;20050;-76
2021/10/05 12:35:36;;;;;;;4.95;1.35;;;;;;;18.45;41.59;98996.16;10351200;28;20140;-77
2021/10/05 12:40:42;;;;;;;2.85;1.20;;;;;;;18.29;41.07;98993.47;10329339;28;20139;-78
2021/10/05 12:45:50;;;;;;;1.60;1.00;;;;;;;18.36;41.61;98979.44;10350840;28;20405;-77
2021/10/05 12:50:52;;;;;;;2.67;1.20;;;;;;;18.13;42.26;98980.19;10351578;28;20513;-75
2021/10/05 12:55:53;;;;;;;1.48;1.00;;;;;;;18.09;42.41;98970.94;10350495;28;20157;-76
2021/10/05 13:00:58;;;;;;;2.08;1.00;;;;;;;18.08;42.49;98967.44;10349747;28;20434;-74
2021/10/05 13:06:01;;;;;;;2.65;1.20;;;;;;;18.12;42.55;98954.72;10364656;28;20410;-75
2021/10/05 13:11:02;;;;;;;2.28;1.10;;;;;;;18.12;42.56;98967.94;10348751;28;20057;-75
2021/10/05 13:16:04;;;;;;;3.10;1.02;;;;;;;18.51;41.67;98969.03;10345809;28;20042;-77
2021/10/05 13:21:06;;;;;;;3.35;1.20;;;;;;;18.52;41.18;98955.59;10347560;28;20053;-77
2021/10/05 13:26:08;;;;;;;2.38;1.23;;;;;;;18.64;41.39;98962.25;10347655;28;20060;-78
2021/10/05 13:31:09;;;;;;;4.30;1.23;;;;;;;18.58;41.26;98954.94;10346367;28;20049;-78
2021/10/05 13:36:11;;;;;;;2.13;0.90;;;;;;;18.21;42.30;98951.13;10346901;28;20396;-77
2021/10/05 13:41:13;;;;;;;2.50;1.00;;;;;;;18.45;42.33;98938.75;10345357;28;20054;-76
2021/10/05 13:46:14;;;;;;;2.28;1.10;;;;;;;18.81;41.95;98943.69;10346455;28;20046;-78
2021/10/05 13:51:16;;;;;;;2.22;1.00;;;;;;;18.82;41.50;98940.88;10345192;28;20048;-77
2021/10/05 13:56:18;;;;;;;3.45;0.88;;;;;;;18.58;42.14;98940.91;10345299;28;20049;-77
2021/10/05 14:01:27;;;;;;;5.72;1.20;;;;;;;18.48;42.19;98943.69;10345031;28;20128;-77
2021/10/05 14:06:30;;;;;;;2.30;1.00;;;;;;;18.58;42.21;98948.84;10346052;28;20217;-79
2021/10/05 14:11:32;;;;;;;2.03;0.97;;;;;;;18.51;42.43;98942.53;10310819;28;1155657;-77
2021/10/05 14:16:34;;;;;;;3.05;1.15;;;;;;;18.35;43.14;98942.53;10348023;28;20780;-77
2021/10/05 14:21:36;;;;;;;1.48;0.80;;;;;;;18.23;43.01;98927.97;10345033;28;20399;-75
2021/10/05 14:26:38;;;;;;;3.45;1.08;;;;;;;18.30;43.77;98935.09;10347864;28;20080;-77
2021/10/05 14:31:41;;;;;;;3.78;1.15;;;;;;;18.02;44.18;98931.06;10347798;28;20241;-76
2021/10/05 14:36:43;;;;;;;6.10;1.20;;;;;;;17.79;45.15;98917.59;10345106;28;20517;-77
2021/10/05 14:41:47;;;;;;;3.92;1.10;;;;;;;17.68;45.71;98917.09;10346809;28;20078;-78
2021/10/05 14:46:49;;;;;;;4.03;1.20;;;;;;;17.46;46.61;98910.59;10347029;28;20148;-77
2021/10/05 14:51:50;;;;;;;3.13;1.13;;;;;;;17.30;46.40;98896.44;10345400;28;20405;-76
2021/10/05 14:56:52;;;;;;;4.80;1.30;;;;;;;17.29;46.85;98902.69;10346437;28;20063;-77
2021/10/05 15:01:54;;;;;;;3.05;1.08;;;;;;;17.12;47.31;98909.72;10346717;28;20112;-77
2021/10/05 15:06:56;;;;;;;3.70;1.30;;;;;;;17.11;47.40;98901.97;10343914;28;20077;-77
2021/10/05 15:11:58;;;;;;;3.60;1.35;;;;;;;17.11;47.63;98905.44;10344878;28;20437;-76
2021/10/05 15:17:00;;;;;;;3.25;1.20;;;;;;;17.04;47.48;98897.31;10344068;28;20056;-76
2021/10/05 15:22:05;;;;;;;3.63;1.20;;;;;;;16.88;48.39;98893.75;10342224;28;20076;-74
2021/10/05 15:27:07;;;;;;;4.50;1.30;;;;;;;16.88;48.56;98896.38;10345783;28;20441;-77
2021/10/05 15:32:27;;;;;;;4.90;1.40;;;;;;;16.90;49.20;98894.41;10344798;28;20048;-78
2021/10/05 15:37:30;;;;;;;4.63;1.23;;;;;;;16.68;50.43;98901.06;10342665;28;20046;-77
2021/10/05 15:42:31;;;;;;;5.50;1.40;;;;;;;16.49;52.09;98897.78;10343671;28;20458;-77
2021/10/05 15:47:33;;;;;;;2.88;1.30;;;;;;;16.29;53.30;98898.91;10343283;28;20049;-77
2021/10/05 15:57:41;;;;;;;5.07;1.40;;;;;;;16.08;55.08;98918.50;10340322;28;20050;-77
2021/10/05 16:02:43;;;;;;;4.32;1.50;;;;;;;15.95;56.07;98915.44;10341955;28;20049;-77
2021/10/05 16:07:45;;;;;;;4.30;1.70;;;;;;;15.85;56.14;98922.56;10341473;28;20069;-74
2021/10/05 16:12:47;;;;;;;5.78;1.85;;;;;;;15.83;56.79;98931.59;10342774;28;20068;-73
2021/10/05 16:17:49;;;;;;;3.75;1.80;;;;;;;15.74;56.81;98935.13;10338285;28;20057;-74
2021/10/05 16:22:51;;;;;;;5.95;1.70;;;;;;;15.58;58.25;98933.13;10341772;28;20495;-76
2021/10/05 16:27:53;;;;;;;4.97;2.20;;;;;;;15.46;58.56;98944.81;10340947;28;20382;-75
2021/10/05 16:32:55;;;;;;;8.27;3.78;;;;;;;15.35;59.05;98948.47;10341778;28;20301;-75
2021/10/05 16:37:58;;;;;;;6.75;2.85;;;;;;;15.22;59.20;98955.06;10340546;28;20081;-75
2021/10/05 16:42:59;;;;;;;27.45;15.68;;;;;;;15.21;59.52;98962.13;10357397;28;20049;-75
2021/10/05 16:48:01;;;;;;;7.10;2.88;;;;;;;15.13;59.29;98969.06;10342230;28;20478;-75
2021/10/05 16:53:03;;;;;;;5.25;2.25;;;;;;;15.07;60.17;98953.84;10340722;28;20289;-74
2021/10/05 16:58:08;;;;;;;5.00;2.40;;;;;;;14.93;60.07;98955.13;10342267;28;20054;-75
2021/10/05 17:03:10;;;;;;;5.10;2.25;;;;;;;14.91;60.43;98951.81;10345112;28;20070;-75
2021/10/05 17:08:12;;;;;;;4.30;1.50;;;;;;;14.80;60.36;98953.81;10348876;28;20046;-75
2021/10/05 17:13:13;;;;;;;3.53;1.48;;;;;;;14.68;61.16;98950.47;10348642;28;20378;-74
2021/10/05 17:18:15;;;;;;;3.47;1.58;;;;;;;14.58;61.38;98950.50;10345971;28;20494;-74
2021/10/05 17:23:17;;;;;;;5.93;1.98;;;;;;;14.59;61.28;98948.69;10347656;28;20056;-74
2021/10/05 17:28:19;;;;;;;2.97;1.35;;;;;;;14.68;61.20;98962.78;10346385;28;20454;-75
2021/10/05 17:33:21;;;;;;;2.97;1.33;;;;;;;14.71;61.12;98971.25;10347661;28;20045;-75
2021/10/05 17:38:22;;;;;;;2.90;1.40;;;;;;;14.68;61.02;98970.69;10347595;28;20528;-74
2021/10/05 17:43:24;;;;;;;2.78;1.85;;;;;;;14.62;61.50;98972.09;10347160;28;20057;-73
2021/10/05 17:48:26;;;;;;;7.65;5.03;;;;;;;14.64;61.64;98985.94;10343909;28;20050;-75
2021/10/05 17:53:28;;;;;;;3.60;2.08;;;;;;;14.65;62.10;98981.50;10346648;28;20050;-75
2021/10/05 17:58:29;;;;;;;7.78;2.60;;;;;;;14.46;62.97;98988.41;10347601;28;20054;-75
2021/10/05 18:03:32;;;;;;;5.68;1.40;;;;;;;14.39;63.56;99005.72;10342055;28;20833;-64
2021/10/05 18:08:34;;;;;;;7.18;3.25;;;;;;;14.12;64.41;99012.63;10346810;28;20472;-65
2021/10/05 18:13:36;;;;;;;5.45;3.10;;;;;;;14.10;64.53;99023.28;10360909;28;20081;-65
2021/10/05 18:18:37;;;;;;;4.32;2.58;;;;;;;13.90;65.15;99039.13;10345066;28;20159;-65
2021/10/05 18:23:40;;;;;;;5.60;3.17;;;;;;;14.01;64.83;99044.28;10347235;28;20191;-65
2021/10/05 18:28:41;;;;;;;5.40;3.03;;;;;;;14.03;64.47;99058.94;10345558;28;20046;-65
2021/10/05 18:33:43;;;;;;;5.13;2.80;;;;;;;14.04;64.06;99072.94;10345520;28;20089;-65
2021/10/05 18:38:48;;;;;;;6.00;3.40;;;;;;;14.03;63.63;99077.34;10342891;28;20053;-65
2021/10/05 18:43:49;;;;;;;3.00;1.52;;;;;;;13.87;63.10;99073.56;10345266;28;20057;-65
2021/10/05 18:48:52;;;;;;;5.55;2.30;;;;;;;13.81;62.90;99079.34;10344682;28;20046;-64
2021/10/05 18:53:54;;;;;;;3.72;1.80;;;;;;;13.82;62.12;99081.84;10346029;28;20046;-65
2021/10/05 18:58:56;;;;;;;4.63;2.60;;;;;;;13.72;62.08;99091.47;10346868;28;20054;-64
2021/10/05 19:04:00;;;;;;;3.85;1.75;;;;;;;13.59;62.23;99091.72;10346350;28;20424;-64
2021/10/05 19:09:02;;;;;;;7.07;3.20;;;;;;;13.56;61.81;99102.47;10344779;28;20413;-64
2021/10/05 19:14:04;;;;;;;5.97;1.90;;;;;;;13.51;61.94;99103.84;10345781;28;20054;-65
2021/10/05 19:19:06;;;;;;;4.78;2.90;;;;;;;13.48;61.76;99112.78;10345002;28;20055;-65
2021/10/05 19:24:08;;;;;;;5.35;1.40;;;;;;;13.37;61.67;99122.53;10344647;28;20045;-65
2021/10/05 19:29:09;;;;;;;4.10;2.00;;;;;;;13.19;62.01;99142.44;10342601;28;20050;-65
2021/10/05 19:34:11;;;;;;;2.45;1.55;;;;;;;12.93;62.25;99153.28;10344394;28;20418;-65
2021/10/05 19:39:16;;;;;;;2.72;1.50;;;;;;;12.78;62.73;99145.81;10344241;28;20053;-65
2021/10/05 19:44:19;;;;;;;2.55;1.00;;;;;;;12.65;62.84;99161.72;10344901;28;20425;-65
2021/10/05 19:49:21;;;;;;;3.13;1.23;;;;;;;12.53;63.22;99162.69;10343058;28;20056;-65
2021/10/05 19:54:24;;;;;;;2.92;1.13;;;;;;;12.41;63.47;99168.09;10360358;28;20123;-65
2021/10/05 19:59:26;;;;;;;4.15;1.33;;;;;;;12.22;63.85;99168.66;10342458;28;20432;-65
2021/10/05 20:04:27;;;;;;;3.65;1.20;;;;;;;12.18;63.68;99177.72;10343342;28;20046;-65
2021/10/05 20:09:29;;;;;;;3.60;1.30;;;;;;;12.11;64.06;99182.59;10357302;28;20181;-65
2021/10/05 20:14:31;;;;;;;2.67;1.20;;;;;;;12.09;64.23;99189.75;10357443;28;20053;-65
2021/10/05 20:19:33;;;;;;;3.72;1.30;;;;;;;12.04;63.98;99199.78;10337602;28;20405;-65
2021/10/05 20:24:35;;;;;;;3.97;1.50;;;;;;;11.97;64.10;99210.81;10340933;28;20038;-66
2021/10/05 20:29:37;;;;;;;4.55;1.30;;;;;;;11.91;64.12;99213.91;10338609;28;20089;-65
2021/10/05 20:34:38;;;;;;;3.35;1.33;;;;;;;11.81;64.41;99215.56;10336276;28;20430;-66
2021/10/05 20:39:41;;;;;;;3.88;1.50;;;;;;;11.78;64.32;99232.38;10348928;28;20061;-65
2021/10/05 20:44:43;;;;;;;6.38;1.30;;;;;;;11.76;64.23;99241.28;10347588;28;20200;-66
2021/10/05 20:49:46;;;;;;;7.68;1.60;;;;;;;11.79;64.24;99255.00;10347208;28;20136;-66
2021/10/05 20:54:48;;;;;;;7.10;1.48;;;;;;;11.76;64.13;99259.63;10347323;28;20139;-66
2021/10/05 20:59:50;;;;;;;6.35;1.52;;;;;;;11.73;64.06;99265.09;10343980;28;20060;-65
2021/10/05 21:04:51;;;;;;;5.65;1.40;;;;;;;11.69;64.14;99272.34;10347438;28;20075;-66
2021/10/05 21:09:56;;;;;;;5.82;1.50;;;;;;;11.66;64.10;99285.66;10347778;28;20144;-65
2021/10/05 21:14:57;;;;;;;11.30;1.88;;;;;;;11.60;64.30;99283.50;10347754;28;20052;-65
2021/10/05 21:19:59;;;;;;;5.20;1.50;;;;;;;11.68;63.95;99298.66;10346843;28;20426;-66
2021/10/05 21:25:01;;;;;;;7.90;1.50;;;;;;;11.68;63.91;99306.53;10360665;28;20052;-65
2021/10/05 21:30:04;;;;;;;5.85;1.50;;;;;;;11.64;63.67;99303.28;10346317;28;20038;-66
2021/10/05 21:35:09;;;;;;;7.15;1.70;;;;;;;11.55;64.12;99310.97;10359998;28;20050;-65
2021/10/05 21:40:12;;;;;;;4.82;1.50;;;;;;;11.50;64.16;99310.50;10348228;28;20058;-65
2021/10/05 21:45:14;;;;;;;4.78;1.50;;;;;;;11.52;63.99;99303.38;10347271;28;20061;-65
2021/10/05 21:50:16;;;;;;;7.03;1.73;;;;;;;11.49;64.08;99309.66;10339897;28;20050;-66
2021/10/05 21:55:17;;;;;;;6.22;1.58;;;;;;;11.47;64.15;99326.41;10340077;28;20516;-66
2021/10/05 22:00:25;;;;;;;4.18;1.50;;;;;;;11.45;64.36;99333.53;10341736;28;20061;-65
2021/10/05 22:05:27;;;;;;;4.85;1.42;;;;;;;11.44;64.27;99334.50;10346523;28;20052;-64
2021/10/05 22:10:29;;;;;;;5.95;1.70;;;;;;;11.43;64.01;99338.06;10346315;28;20057;-65
2021/10/05 22:15:31;;;;;;;6.40;1.83;;;;;;;11.54;64.03;99343.38;10346310;28;20041;-64
2021/10/05 22:20:33;;;;;;;5.75;1.60;;;;;;;11.79;63.72;99353.69;10344138;28;20491;-65
2021/10/05 22:25:35;;;;;;;6.47;1.70;;;;;;;11.92;63.14;99364.97;10344481;28;20072;-65
2021/10/05 22:30:36;;;;;;;5.53;1.58;;;;;;;12.02;63.36;99368.56;10344549;28;20045;-65
2021/10/05 22:35:38;;;;;;;4.00;1.52;;;;;;;11.95;63.04;99370.78;10345726;28;20037;-65
2021/10/05 22:40:40;;;;;;;3.83;1.70;;;;;;;11.86;63.11;99383.75;10345485;28;20479;-65
2021/10/05 22:45:41;;;;;;;5.80;1.67;;;;;;;11.92;63.08;99394.63;10359667;28;20050;-64
2021/10/05 22:50:43;;;;;;;7.15;2.00;;;;;;;12.07;62.45;99401.34;10342986;28;20049;-64
2021/10/05 22:55:46;;;;;;;6.78;1.77;;;;;;;12.15;62.48;99403.38;10342441;28;20056;-64
2021/10/05 23:00:48;;;;;;;5.85;1.90;;;;;;;12.14;62.18;99406.97;10342252;28;20144;-64
2021/10/05 23:05:49;;;;;;;9.88;2.00;;;;;;;12.14;62.20;99412.22;10344316;28;20570;-64
2021/10/05 23:10:51;;;;;;;6.80;1.80;;;;;;;12.06;62.11;99419.81;10343111;28;20069;-64
2021/10/05 23:15:53;;;;;;;6.05;1.60;;;;;;;12.16;61.73;99415.53;10342982;28;20053;-64
2021/10/05 23:20:55;;;;;;;6.28;1.77;;;;;;;12.10;61.54;99416.00;10342006;28;20050;-64
2021/10/05 23:25:56;;;;;;;5.10;1.55;;;;;;;11.91;61.42;99420.91;10343549;28;20053;-64